Time;durP1;ratioP1;P1;durP2;ratioP2;P2;SDS_P1;SDS_P2;PMS_P1;PMS_P2;Temp;Humidity;BMP_temperature;BMP_pressure;BME280_temperature;BME280_humidity;BME280_pressure;Samples;Min_cycle;Max_cycle;Signal;HPM_P1;HPM_P2
2022/08/28 00:01:34;;;;;;;;;;;24.90;58.30;;;23.29;60.94;100998.47;12254809;19;19933;-87
2022/08/28 00:05:38;;;;;;;;;;;24.90;58.30;;;23.24;61.19;100995.44;12259536;19;20010;-87
2022/08/28 00:09:40;;;;;;;;;;;25.20;58.40;;;23.23;61.10;100999.09;12257104;19;19959;-86
2022/08/28 00:13:41;;;;;;;;;;;24.80;58.40;;;23.08;61.28;100971.41;12257187;19;19922;-86
2022/08/28 00:17:44;;;;;;;;;;;24.80;58.30;;;23.14;60.92;100984.06;12256556;19;19922;-87
2022/08/28 00:21:46;;;;;;;;;;;24.80;58.30;;;23.17;61.00;100994.44;12249254;19;20337;-87
2022/08/28 00:25:52;;;;;;;;;;;24.80;58.30;;;23.08;61.25;100992.72;12253724;19;20249;-87
2022/08/28 00:29:53;;;;;;;;;;;24.80;58.30;;;23.13;61.20;101009.06;12256760;19;19993;-88
2022/08/28 00:33:55;;;;;;;;;;;24.70;58.30;;;22.62;61.03;100926.38;12252978;19;19985;-87
2022/08/28 00:37:57;;;;;;;;;;;24.90;58.80;;;23.11;61.30;101011.88;12257178;19;20223;-87
2022/08/28 00:41:58;;;;;;;;;;;24.70;58.40;;;23.10;61.23;101006.72;12251958;19;20293;-86
2022/08/28 00:46:01;;;;;;;;;;;24.70;58.40;;;23.00;60.88;100987.34;12254016;19;19915;-86
2022/08/28 00:50:05;;;;;;;;;;;24.70;58.50;;;23.12;61.08;101002.91;12251968;19;19948;-87
2022/08/28 00:54:07;;;;;;;;;;;24.70;58.90;;;23.10;60.95;101004.06;12252385;19;19930;-86
2022/08/28 00:58:09;;;;;;;;;;;24.70;58.50;;;22.94;61.05;100986.94;12252281;19;19915;-86
2022/08/28 01:02:11;;;;;;;;;;;24.70;58.40;;;22.93;61.02;100987.13;12251308;19;20330;-87
2022/08/28 01:06:14;;;;;;;;;;;24.60;58.40;;;22.88;61.41;100992.09;12254340;19;20282;-85
2022/08/28 01:10:19;;;;;;;;;;;24.60;58.40;;;22.71;61.25;100968.03;12252015;19;19975;-87
2022/08/28 01:14:25;;;;;;;;;;;24.50;58.40;;;22.81;61.22;100991.03;12266310;19;19990;-86
2022/08/28 01:18:27;;;;;;;;;;;24.50;58.50;;;22.61;61.07;100956.66;12266566;19;19933;-86
2022/08/28 01:22:32;;;;;;;;;;;24.50;58.50;;;22.83;61.06;101003.22;12256536;19;19911;-88
2022/08/28 01:26:33;;;;;;;;;;;24.60;58.90;;;22.67;61.21;100987.13;12261791;19;20354;-88
2022/08/28 01:30:35;;;;;;;;;;;24.40;58.50;;;22.52;61.27;100969.09;12264049;19;19971;-86
2022/08/28 01:34:37;;;;;;;;;;;24.60;58.60;;;22.52;61.47;100990.38;12264349;19;20358;-87
2022/08/28 01:38:42;;;;;;;;;;;24.30;58.40;;;22.64;61.08;101024.72;12264861;19;20345;-87
2022/08/28 01:42:44;;;;;;;;;;;24.30;58.40;;;22.54;61.52;101009.66;12258830;19;19922;-88
2022/08/28 01:46:45;;;;;;;;;;;24.20;58.40;;;22.54;61.51;101015.00;12264962;19;20321;-86
2022/08/28 01:50:47;;;;;;;;;;;24.40;58.50;;;22.16;61.23;100959.47;12262638;19;19919;-86
2022/08/28 01:54:49;;;;;;;;;;;24.20;58.50;;;22.34;61.49;101000.22;12263404;19;19915;-86
2022/08/28 01:58:51;;;;;;;;;;;24.20;58.40;;;22.27;61.27;100993.84;12262438;19;20008;-87
2022/08/28 02:02:58;;;;;;;;;;;24.00;58.40;;;22.34;61.72;101018.84;12258858;19;19907;-86
2022/08/28 02:07:00;;;;;;;;;;;24.00;58.50;;;22.28;61.74;101008.84;12262746;19;20326;-86
2022/08/28 02:11:03;;;;;;;;;;;24.00;58.50;;;22.30;61.71;101018.34;12263534;19;19915;-88
2022/08/28 02:15:11;;;;;;;;;;;23.90;58.50;;;22.20;61.38;101012.25;12262265;19;20314;-87
2022/08/28 02:19:13;;;;;;;;;;;23.90;58.40;;;22.08;61.25;100997.47;12263361;19;19930;-88
2022/08/28 02:23:15;;;;;;;;;;;23.80;58.40;;;22.06;61.38;101005.63;12256179;19;19923;-87
2022/08/28 02:27:17;;;;;;;;;;;23.80;58.40;;;22.09;61.20;101010.63;12265752;19;19972;-87
2022/08/28 02:31:19;;;;;;;;;;;23.70;58.30;;;22.10;61.45;101014.97;12261766;19;19974;-86
2022/08/28 02:35:22;;;;;;;;;;;23.70;58.40;;;21.89;61.37;100985.19;12263397;19;19927;-87
2022/08/28 02:39:23;;;;;;;;;;;23.70;58.30;;;22.02;61.43;101006.91;12260405;19;19918;-87
2022/08/28 02:43:25;;;;;;;;;;;23.80;58.40;;;21.61;61.09;100953.34;12261440;19;20393;-87
2022/08/28 02:47:27;;;;;;;;;;;23.70;58.40;;;22.00;61.48;101016.84;12262382;19;19926;-88
2022/08/28 02:51:32;;;;;;;;;;;23.90;58.60;;;21.99;61.52;101022.34;12259848;19;20286;-86
2022/08/28 02:55:33;;;;;;;;;;;23.70;58.50;;;21.92;61.55;101008.81;12259909;19;20250;-87
2022/08/28 02:59:35;;;;;;;;;;;23.70;58.50;;;21.96;61.66;101020.81;12260828;19;20294;-88
2022/08/28 03:03:38;;;;;;;;;;;23.90;58.60;;;21.96;61.43;101015.50;12260791;19;19943;-88
2022/08/28 03:07:41;;;;;;;;;;;23.60;58.50;;;21.85;61.36;101002.44;12262572;19;20301;-88
2022/08/28 03:11:43;;;;;;;;;;;23.70;58.60;;;21.89;61.70;101009.09;12260347;19;20255;-87
2022/08/28 03:15:45;;;;;;;;;;;23.60;58.60;;;21.89;61.42;101009.09;12260040;19;19917;-86
2022/08/28 03:19:48;;;;;;;;;;;23.60;58.50;;;22.03;61.44;101034.34;12259390;19;19918;-87
2022/08/28 03:23:54;;;;;;;;;;;23.60;58.90;;;21.91;61.36;101011.63;12257411;19;20256;-87
2022/08/28 03:27:55;;;;;;;;;;;23.60;58.70;;;21.96;61.67;101033.28;12257684;19;19923;-87
2022/08/28 03:31:58;;;;;;;;;;;23.70;58.60;;;21.59;61.53;100971.25;12255385;19;19929;-87
2022/08/28 03:36:00;;;;;;;;;;;23.90;58.60;;;21.91;61.44;101031.06;12256083;19;20326;-88
2022/08/28 03:40:07;;;;;;;;;;;23.60;58.60;;;21.99;61.73;101038.31;12255729;19;19911;-88
2022/08/28 03:44:08;;;;;;;;;;;23.60;58.60;;;21.42;61.46;100954.31;12257108;19;19919;-88
2022/08/28 03:48:10;;;;;;;;;;;23.70;58.70;;;21.53;61.66;100961.25;12256918;19;19915;-85
2022/08/28 03:52:11;;;;;;;;;;;23.50;58.70;;;21.95;61.65;101034.25;12253977;19;20257;-87
2022/08/28 03:56:17;;;;;;;;;;;23.90;58.90;;;21.75;61.63;100999.00;12255938;19;19935;-87
2022/08/28 04:00:19;;;;;;;;;;;23.50;58.70;;;21.81;61.53;101022.31;12254480;19;20336;-87
2022/08/28 04:04:20;;;;;;;;;;;23.60;58.80;;;21.87;61.70;101037.66;12256887;19;19931;-87
2022/08/28 04:08:22;;;;;;;;;;;23.50;58.70;;;21.87;61.68;101050.97;12254732;19;19930;-87
2022/08/28 04:12:24;;;;;;;;;;;23.70;58.80;;;21.23;61.82;100965.03;12253069;19;19922;-87
2022/08/28 04:16:26;;;;;;;;;;;23.60;58.70;;;21.34;61.68;100993.22;12256390;19;19911;-88
2022/08/28 04:20:28;;;;;;;;;;;23.40;58.60;;;21.62;61.69;101029.44;12254351;19;19924;-87
2022/08/28 04:24:29;;;;;;;;;;;23.40;58.60;;;21.63;61.76;101035.59;12254743;19;20330;-87
2022/08/28 04:28:31;;;;;;;;;;;23.30;58.60;;;21.65;61.65;101046.91;12255144;19;19922;-87
2022/08/28 04:32:36;;;;;;;;;;;23.40;58.60;;;21.69;62.06;101060.75;12251646;19;20253;-87
2022/08/28 04:36:37;;;;;;;;;;;23.40;58.60;;;21.62;61.93;101052.53;12254831;19;19919;-85
2022/08/28 04:40:39;;;;;;;;;;;23.30;58.60;;;21.56;61.84;101053.94;12252922;19;19910;-87
2022/08/28 04:44:41;;;;;;;;;;;23.30;58.70;;;21.55;61.97;101054.94;12253468;19;19914;-88
2022/08/28 04:48:43;;;;;;;;;;;23.40;58.60;;;21.38;61.92;101032.63;12252819;19;19915;-87
2022/08/28 04:52:45;;;;;;;;;;;23.30;58.70;;;21.32;61.63;101027.06;12250126;19;19953;-86
2022/08/28 04:56:46;;;;;;;;;;;23.30;58.60;;;21.52;61.92;101073.84;12248453;19;19907;-87
2022/08/28 05:00:48;;;;;;;;;;;23.30;58.50;;;21.52;61.82;101086.28;12251718;19;19919;-86
2022/08/28 05:04:49;;;;;;;;;;;23.20;58.40;;;21.35;61.79;101069.28;12255289;19;19914;-86
2022/08/28 05:08:52;;;;;;;;;;;23.20;58.50;;;21.11;61.59;101030.75;12254196;19;20357;-87
2022/08/28 05:12:53;;;;;;;;;;;23.20;58.50;;;21.42;61.66;101094.31;12250423;19;19947;-87
2022/08/28 05:16:56;;;;;;;;;;;23.10;58.50;;;21.33;61.69;101081.84;12254229;19;20301;-87
2022/08/28 05:20:58;;;;;;;;;;;23.10;58.40;;;21.28;61.72;101076.13;12247911;19;19911;-86
2022/08/28 05:24:59;;;;;;;;;;;23.40;58.60;;;21.12;61.92;101056.38;12251871;19;19918;-88
2022/08/28 05:29:01;;;;;;;;;;;23.30;58.70;;;21.34;61.87;101100.31;12250621;19;19915;-88
2022/08/28 05:33:04;;;;;;;;;;;23.00;58.50;;;21.30;61.62;101087.47;12248273;19;20341;-87
2022/08/28 05:37:07;;;;;;;;;;;23.00;58.40;;;21.34;61.54;101092.34;12253552;19;19929;-87
2022/08/28 05:41:09;;;;;;;;;;;23.00;58.50;;;21.13;61.98;101063.34;12251363;19;19922;-86
2022/08/28 05:45:10;;;;;;;;;;;23.00;58.60;;;21.33;61.87;101097.78;12252864;19;19940;-87
2022/08/28 05:49:13;;;;;;;;;;;23.00;58.60;;;21.09;61.63;101067.28;12250623;19;19922;-88
2022/08/28 05:53:16;;;;;;;;;;;23.10;58.60;;;21.28;62.07;101106.22;12244725;19;20225;-90
2022/08/28 05:57:18;;;;;;;;;;;23.00;58.50;;;20.85;61.51;101043.03;12252377;19;19919;-89
2022/08/28 06:01:22;;;;;;;;;;;23.00;58.60;;;21.24;61.89;101106.66;12256498;19;19919;-87
2022/08/28 06:05:24;;;;;;;;;;;23.20;58.60;;;21.21;62.00;101102.47;12259208;19;19932;-88
2022/08/28 06:09:30;;;;;;;;;;;22.90;58.60;;;21.29;61.79;101107.06;12258670;19;19910;-88
2022/08/28 06:13:32;;;;;;;;;;;22.90;58.70;;;20.88;61.99;101037.44;12255691;19;19927;-89
2022/08/28 06:17:34;;;;;;;;;;;22.90;58.70;;;21.31;62.13;101116.56;12256647;19;20341;-88
2022/08/28 06:21:37;;;;;;;;;;;23.00;58.70;;;21.25;61.57;101101.16;12251599;19;20322;-88
2022/08/28 06:25:40;;;;;;;;;;;22.90;58.70;;;21.27;61.92;101117.81;12254473;19;19979;-88
2022/08/28 06:29:43;;;;;;;;;;;23.20;58.70;;;21.20;62.07;101112.25;12251439;19;19919;-88
2022/08/28 06:33:45;;;;;;;;;;;22.90;58.50;;;21.06;62.12;101090.63;12252840;19;19949;-88
2022/08/28 06:37:46;;;;;;;;;;;22.80;58.50;;;21.17;61.98;101123.16;12255217;19;19911;-86
2022/08/28 06:41:48;;;;;;;;;;;22.90;58.50;;;21.18;61.72;101131.97;12250789;19;19940;-88
2022/08/28 06:45:53;;;;;;;;;;;22.80;58.50;;;21.02;61.81;101121.94;12252958;19;20001;-87
2022/08/28 06:49:54;;;;;;;;;;;22.80;58.40;;;20.98;61.88;101126.72;12253605;19;19911;-86
2022/08/28 06:53:56;;;;;;;;;;;22.80;58.40;;;20.96;62.17;101138.44;12254127;19;19923;-85
2022/08/28 06:57:58;;;;;;;;;;;22.70;58.30;;;20.72;61.95;101097.25;12254659;19;19918;-86
2022/08/28 07:02:00;;;;;;;;;;;22.70;58.40;;;20.95;62.26;101150.03;12249706;19;20272;-85
2022/08/28 07:06:04;;;;;;;;;;;22.80;58.40;;;21.03;62.31;101165.25;12254493;19;19925;-85
2022/08/28 07:10:06;;;;;;;;;;;22.70;58.40;;;20.99;61.90;101154.09;12249680;19;19919;-84
2022/08/28 07:14:08;;;;;;;;;;;22.70;58.30;;;20.87;61.93;101147.25;12251708;19;19936;-85
2022/08/28 07:18:11;;;;;;;;;;;22.70;58.30;;;20.94;61.88;101166.94;12252936;19;19919;-85
2022/08/28 07:22:12;;;;;;;;;;;22.80;58.30;;;20.53;61.84;101098.09;12247181;19;19929;-84
2022/08/28 07:26:18;;;;;;;;;;;22.70;58.40;;;21.02;61.76;101172.41;12252639;19;19923;-86
2022/08/28 07:30:19;;;;;;;;;;;22.70;58.40;;;20.88;61.64;101147.13;12251106;19;19919;-85
2022/08/28 07:34:22;;;;;;;;;;;22.90;58.50;;;20.81;62.05;101108.84;12251864;19;19919;-86
2022/08/28 07:38:24;;;;;;;;;;;22.70;58.50;;;21.17;61.99;101162.16;12251834;19;20246;-85
2022/08/28 07:46:46;;;;;;;;;;;23.10;58.80;;;21.47;62.13;101178.88;12254826;19;20314;-85
2022/08/28 07:50:47;;;;;;;;;;;23.00;58.70;;;21.57;61.76;101191.16;12251545;19;19929;-86
2022/08/28 07:54:49;;;;;;;;;;;23.20;58.60;;;21.53;62.09;101181.81;12250729;19;19915;-85
2022/08/28 07:58:51;;;;;;;;;;;23.20;58.50;;;21.68;62.14;101181.34;12246102;19;19931;-87
2022/08/28 08:02:52;;;;;;;;;;;23.30;58.60;;;21.27;62.12;101104.53;12247723;19;19946;-87
2022/08/28 08:06:54;;;;;;;;;;;23.30;58.40;;;21.75;61.85;101163.84;12247100;19;19940;-87
2022/08/28 08:10:56;;;;;;;;;;;23.50;58.50;;;22.09;61.85;101207.47;12248904;19;19913;-86
2022/08/28 08:14:57;;;;;;;;;;;23.80;58.50;;;22.14;61.95;101195.53;12248983;19;19933;-85
2022/08/28 08:19:00;;;;;;;;;;;23.70;58.30;;;22.05;62.30;101163.53;12249466;19;19956;-85
2022/08/28 08:23:01;;;;;;;;;;;23.80;58.40;;;22.39;61.84;101186.88;12243047;19;19923;-86
2022/08/28 08:27:03;;;;;;;;;;;24.00;58.30;;;22.61;61.96;101192.75;12250915;19;20275;-86
2022/08/28 08:31:16;;;;;;;;;;;24.10;58.20;;;22.56;61.88;101171.91;12246547;19;19915;-86
2022/08/28 08:35:18;;;;;;;;;;;24.50;58.20;;;22.91;61.79;101211.00;12245913;19;19915;-86
2022/08/28 08:39:19;;;;;;;;;;;24.30;58.00;;;22.97;61.73;101201.59;12245368;19;20321;-87
2022/08/28 08:43:23;;;;;;;;;;;24.50;58.10;;;23.04;61.33;101208.00;12246982;19;20262;-87
2022/08/28 08:47:48;;;;;;;;;;;24.80;57.60;;;23.20;61.74;101236.59;12247806;19;19945;-87
2022/08/28 08:51:58;;;;;;;;;;;24.70;57.10;;;22.99;61.35;101199.63;12247508;19;19919;-86
2022/08/28 08:56:01;;;;;;;;;;;24.70;57.60;;;23.23;61.37;101233.63;12250362;19;19926;-87
2022/08/28 09:00:08;;;;;;;;;;;24.80;57.40;;;23.29;61.28;101242.81;12248749;19;19930;-86
2022/08/28 09:04:31;;;;;;;;;;;24.80;57.50;;;23.01;61.21;101187.00;12248891;19;19925;-85
2022/08/28 09:08:41;;;;;;;;;;;24.90;57.10;;;23.27;61.48;101244.78;12249733;19;19923;-86
2022/08/28 09:13:01;;;;;;;;;;;25.00;57.10;;;22.76;61.34;101183.22;12249011;19;19923;-86
2022/08/28 09:17:05;;;;;;;;;;;24.90;56.90;;;23.01;61.59;101231.41;12249751;19;19919;-85
2022/08/28 09:21:07;;;;;;;;;;;24.80;56.60;;;23.06;61.61;101240.66;12236627;19;19923;-85
2022/08/28 09:25:09;;;;;;;;;;;24.70;57.00;;;23.03;61.66;101218.78;12246495;19;19915;-86
2022/08/28 09:29:17;;;;;;;;;;;24.80;57.30;;;23.30;61.44;101249.81;12247235;19;19922;-86
2022/08/28 09:33:34;;;;;;;;;;;24.90;57.40;;;23.32;61.43;101238.00;12249331;19;19918;-85
2022/08/28 09:37:36;;;;;;;;;;;24.90;56.90;;;23.37;61.10;101241.03;12260037;19;19915;-86
2022/08/28 09:46:48;;;;;;;;;;;25.10;57.00;;;23.54;61.03;101251.81;12260406;19;19930;-85
2022/08/28 09:51:05;;;;;;;;;;;25.20;57.20;;;23.64;61.05;101268.56;12255763;19;20273;-86
2022/08/28 09:55:09;;;;;;;;;;;25.20;56.80;;;23.68;61.14;101277.06;12260764;19;20357;-86
2022/08/28 09:59:12;;;;;;;;;;;25.20;57.20;;;23.56;60.93;101257.84;12259465;19;19914;-86
2022/08/28 10:03:20;;;;;;;;;;;25.20;57.00;;;23.55;61.31;101256.19;12253222;19;20246;-86
2022/08/28 10:07:36;;;;;;;;;;;25.30;56.80;;;23.64;61.24;101279.22;12260131;19;19915;-87
2022/08/28 10:11:49;;;;;;;;;;;25.30;56.60;;;23.06;60.80;101206.00;12258853;19;19954;-89
2022/08/28 10:16:15;;;;;;;;;;;25.20;56.50;;;23.57;60.78;101281.69;12258356;19;19922;-86
2022/08/28 10:20:36;;;;;;;;;;;25.20;56.60;;;23.67;60.97;101273.56;12258077;19;20322;-86
2022/08/28 10:24:51;;;;;;;;;;;25.20;56.70;;;23.82;60.83;101281.88;12259468;19;19922;-86
2022/08/28 10:29:01;;;;;;;;;;;25.30;56.90;;;23.95;60.72;101284.09;12257983;19;20349;-86
2022/08/28 10:33:21;;;;;;;;;;;25.40;57.00;;;23.99;60.63;101280.97;12249362;19;19919;-86
2022/08/28 10:37:33;;;;;;;;;;;25.50;57.30;;;24.06;60.92;101286.47;12255848;19;19926;-85
2022/08/28 10:41:43;;;;;;;;;;;25.60;56.10;;;24.04;60.87;101286.66;12258430;19;19907;-84
2022/08/28 10:45:46;;;;;;;;;;;25.60;56.60;;;23.87;60.70;101254.72;12255066;19;19907;-84
2022/08/28 10:49:51;;;;;;;;;;;25.70;55.80;;;23.66;60.61;101242.56;12254767;19;20356;-84
2022/08/28 10:53:57;;;;;;;;;;;25.70;56.10;;;23.92;60.41;101295.09;12256264;19;19919;-84
2022/08/28 10:58:02;;;;;;;;;;;25.60;56.20;;;23.88;60.33;101299.09;12257560;19;20367;-86
2022/08/28 11:02:05;;;;;;;;;;;25.60;56.40;;;23.82;60.29;101296.03;12253616;19;19934;-86
2022/08/28 11:06:23;;;;;;;;;;;25.50;56.00;;;23.73;60.75;101296.97;12255303;19;19930;-84
2022/08/28 11:10:31;;;;;;;;;;;25.50;56.30;;;23.88;60.72;101315.09;12252182;19;19918;-84
2022/08/28 11:14:36;;;;;;;;;;;25.50;56.40;;;23.70;60.38;101315.91;12254158;19;19914;-85
2022/08/28 11:19:05;;;;;;;;;;;25.40;55.70;;;23.68;60.33;101333.91;12251903;19;19918;-86
2022/08/28 11:23:13;;;;;;;;;;;25.40;55.90;;;23.51;60.14;101332.94;12249186;19;19918;-84
2022/08/28 11:28:02;;;;;;;;;;;25.30;55.40;;;23.32;60.65;101336.63;12238115;19;19974;-84
2022/08/28 11:32:27;;;;;;;;;;;25.10;55.70;;;23.21;60.75;101336.84;12245989;19;19941;-86
2022/08/28 11:36:28;;;;;;;;;;;25.00;55.70;;;23.09;60.30;101340.75;12251895;19;19930;-84
2022/08/28 11:40:30;;;;;;;;;;;25.00;55.80;;;23.02;60.81;101342.34;12243741;19;19926;-84
2022/08/28 11:44:43;;;;;;;;;;;24.70;55.90;;;22.97;60.64;101330.28;12253564;19;19951;-84
2022/08/28 11:48:48;;;;;;;;;;;24.70;55.90;;;22.95;60.27;101332.25;12252150;19;20008;-84
2022/08/28 11:52:55;;;;;;;;;;;24.70;56.00;;;23.01;60.60;101344.16;12251540;19;20582;-84
2022/08/28 11:57:07;;;;;;;;;;;24.70;56.20;;;23.04;60.66;101341.19;12255077;19;19942;-85
2022/08/28 12:01:10;;;;;;;;;;;24.70;56.20;;;23.05;60.56;101334.03;12252995;19;19925;-84
2022/08/28 12:05:15;;;;;;;;;;;24.70;56.10;;;23.07;60.29;101338.22;12256563;19;20320;-84
2022/08/28 12:09:25;;;;;;;;;;;24.60;56.20;;;23.11;60.37;101336.91;12256213;19;19911;-84
2022/08/28 12:13:48;;;;;;;;;;;24.70;56.20;;;23.02;60.02;101319.19;12252423;19;19927;-84
2022/08/28 12:17:51;;;;;;;;;;;24.70;56.00;;;22.99;60.22;101327.47;12253683;19;20275;-84
2022/08/28 12:21:53;;;;;;;;;;;24.70;55.90;;;23.02;60.46;101329.84;12249782;19;20369;-84
2022/08/28 12:26:04;;;;;;;;;;;24.80;56.10;;;23.02;60.36;101334.34;12251595;19;19907;-84
2022/08/28 12:30:06;;;;;;;;;;;24.70;55.90;;;23.01;60.42;101319.31;12251922;19;19975;-84
2022/08/28 12:34:37;;;;;;;;;;;24.70;56.20;;;23.09;60.16;101333.59;12251729;19;19923;-85
2022/08/28 12:38:39;;;;;;;;;;;24.70;56.10;;;23.14;60.09;101335.78;12251987;19;19998;-85
2022/08/28 12:42:48;;;;;;;;;;;24.70;56.10;;;23.16;59.88;101328.47;12244733;19;19936;-85
2022/08/28 12:46:50;;;;;;;;;;;24.80;56.10;;;23.24;60.23;101335.72;12251617;19;20446;-85
2022/08/28 12:51:07;;;;;;;;;;;24.80;56.00;;;23.17;59.89;101319.50;12249215;19;20317;-85
2022/08/28 12:55:08;;;;;;;;;;;24.80;56.00;;;23.18;59.78;101326.50;12252254;19;19921;-85
2022/08/28 12:59:24;;;;;;;;;;;24.80;55.90;;;23.12;60.18;101335.13;12250336;19;19911;-86
2022/08/28 13:03:26;;;;;;;;;;;24.80;55.60;;;23.05;60.15;101345.53;12247817;19;19939;-88
2022/08/28 13:07:31;;;;;;;;;;;24.70;55.60;;;22.86;59.91;101325.16;12257585;19;19922;-85
2022/08/28 13:11:35;;;;;;;;;;;24.70;55.60;;;22.87;60.21;101333.97;12270577;19;19925;-86
2022/08/28 13:15:55;;;;;;;;;;;24.80;55.60;;;22.89;60.09;101346.16;12271200;19;19918;-86
2022/08/28 13:20:05;;;;;;;;;;;24.60;55.60;;;22.86;60.00;101341.13;12269885;19;19915;-85
2022/08/28 13:24:27;;;;;;;;;;;24.50;55.70;;;22.87;59.78;101340.16;12270826;19;19914;-86
2022/08/28 13:28:28;;;;;;;;;;;24.50;55.80;;;22.82;59.71;101325.59;12271282;19;19927;-88
2022/08/28 13:32:33;;;;;;;;;;;24.50;55.80;;;22.69;59.83;101315.31;12266170;19;19911;-86
2022/08/28 13:36:58;;;;;;;;;;;24.50;55.70;;;22.77;59.72;101330.56;12264440;19;20317;-86
2022/08/28 13:41:02;;;;;;;;;;;24.40;55.70;;;22.75;60.06;101336.00;12268561;19;19911;-87
2022/08/28 13:45:04;;;;;;;;;;;24.40;55.60;;;22.57;59.73;101312.00;12269787;19;19922;-86
2022/08/28 13:49:06;;;;;;;;;;;24.30;55.60;;;22.23;59.71;101262.03;12270287;19;20329;-86
2022/08/28 13:53:07;;;;;;;;;;;24.30;55.70;;;22.56;59.97;101318.31;12264933;19;19926;-86
2022/08/28 13:57:08;;;;;;;;;;;24.30;55.60;;;22.54;59.58;101329.09;12271208;19;20312;-87
2022/08/28 14:01:10;;;;;;;;;;;24.30;55.70;;;22.62;59.89;101346.19;12262695;19;19930;-86
2022/08/28 14:05:11;;;;;;;;;;;24.20;55.80;;;22.16;60.08;101260.09;12269400;19;20238;-87
2022/08/28 14:09:14;;;;;;;;;;;24.40;56.00;;;22.62;59.81;101325.72;12268793;19;19918;-86
2022/08/28 14:13:16;;;;;;;;;;;24.30;56.00;;;22.67;59.69;101336.75;12264137;19;19938;-87
2022/08/28 14:17:20;;;;;;;;;;;24.30;55.90;;;22.69;59.62;101332.13;12266364;19;19923;-86
2022/08/28 14:21:23;;;;;;;;;;;24.30;55.90;;;22.61;59.85;101309.91;12253802;19;19935;-87
2022/08/28 14:25:24;;;;;;;;;;;24.30;55.90;;;22.57;59.53;101298.69;12255430;19;19915;-87
2022/08/28 14:29:26;;;;;;;;;;;24.50;56.20;;;22.78;59.46;101314.41;12255273;19;19925;-86
2022/08/28 14:33:27;;;;;;;;;;;24.40;56.00;;;22.81;59.37;101315.94;12255087;19;19911;-86
2022/08/28 14:37:28;;;;;;;;;;;24.40;56.00;;;22.80;59.47;101300.97;12252756;19;19927;-86
2022/08/28 14:41:30;;;;;;;;;;;24.50;55.90;;;22.37;59.32;101220.78;12251309;19;19933;-86
2022/08/28 14:45:32;;;;;;;;;;;24.50;55.50;;;22.60;59.61;101254.97;12254551;19;20348;-86
2022/08/28 14:49:34;;;;;;;;;;;24.50;55.30;;;22.93;59.75;101301.44;12252019;19;19971;-86
2022/08/28 14:53:36;;;;;;;;;;;24.50;55.30;;;22.99;59.51;101310.66;12255396;19;19962;-86
2022/08/28 14:57:37;;;;;;;;;;;24.80;55.60;;;22.94;59.67;101295.94;12254030;19;19923;-86
2022/08/28 15:01:39;;;;;;;;;;;24.60;55.70;;;22.88;59.01;101271.75;12251082;19;20342;-86
2022/08/28 15:05:46;;;;;;;;;;;24.70;55.50;;;23.14;59.52;101309.13;12253532;19;19925;-86
2022/08/28 15:13:56;;;;;;;;;;;24.70;55.30;;;23.33;59.31;101318.78;12251633;19;19919;-88
2022/08/28 15:18:09;;;;;;;;;;;24.80;55.30;;;23.36;59.10;101316.69;12248729;19;19922;-86
2022/08/28 15:22:10;;;;;;;;;;;24.90;55.70;;;23.25;59.15;101286.75;12250920;19;19938;-88
2022/08/28 15:26:16;;;;;;;;;;;24.90;55.60;;;23.10;58.75;101250.00;12253254;19;19947;-85
2022/08/28 15:30:18;;;;;;;;;;;25.00;55.50;;;23.22;59.06;101258.56;12251883;19;20385;-84
2022/08/28 15:34:24;;;;;;;;;;;25.00;55.50;;;23.34;58.60;101260.00;12251636;19;20000;-84
2022/08/28 15:38:25;;;;;;;;;;;25.10;55.30;;;23.66;59.04;101306.56;12252194;19;19927;-84
2022/08/28 15:42:27;;;;;;;;;;;25.10;55.30;;;23.50;58.76;101279.78;12247644;19;19929;-83
2022/08/28 15:46:32;;;;;;;;;;;25.20;55.20;;;23.62;58.59;101297.19;12250685;19;19915;-84
2022/08/28 15:50:34;;;;;;;;;;;25.40;55.50;;;23.55;58.72;101280.16;12249951;19;20325;-86
2022/08/28 15:54:35;;;;;;;;;;;25.20;55.00;;;23.75;58.83;101294.16;12250640;19;20349;-83
2022/08/28 15:58:37;;;;;;;;;;;25.20;55.10;;;23.76;58.53;101287.81;12250233;19;19944;-83
2022/08/28 16:02:39;;;;;;;;;;;25.30;55.00;;;23.73;58.67;101293.47;12247524;19;19927;-85
2022/08/28 16:06:41;;;;;;;;;;;25.30;55.10;;;23.47;58.64;101250.78;12250317;19;19919;-85
2022/08/28 16:10:47;;;;;;;;;;;25.40;55.40;;;23.47;58.92;101240.13;12244936;19;20559;-84
2022/08/28 16:14:49;;;;;;;;;;;25.30;54.90;;;23.72;58.95;101260.63;12252574;19;20496;-86
2022/08/28 16:18:50;;;;;;;;;;;25.40;55.00;;;23.57;58.91;101235.50;12249004;19;19922;-86
2022/08/28 16:22:52;;;;;;;;;;;25.50;55.00;;;23.91;58.91;101293.44;12247602;19;19978;-85
2022/08/28 16:26:54;;;;;;;;;;;25.50;54.80;;;23.87;58.80;101273.38;12249329;19;20329;-85
2022/08/28 16:30:56;;;;;;;;;;;25.60;54.90;;;24.03;58.25;101294.81;12251217;19;19919;-85
2022/08/28 16:35:01;;;;;;;;;;;25.60;54.90;;;23.95;58.45;101282.28;12256352;19;19927;-86
2022/08/28 16:39:03;;;;;;;;;;;25.60;54.60;;;23.98;58.48;101276.63;12252372;19;19940;-87
2022/08/28 16:43:05;;;;;;;;;;;25.60;54.70;;;23.88;58.17;101259.06;12240745;19;19939;-86
2022/08/28 16:47:07;;;;;;;;;;;25.60;54.60;;;23.89;58.14;101258.06;12249447;19;19923;-86
2022/08/28 16:51:09;;;;;;;;;;;25.60;54.60;;;23.98;58.55;101276.63;12247041;19;19922;-85
2022/08/28 16:55:11;;;;;;;;;;;25.70;54.70;;;24.01;58.09;101276.31;12249729;19;19929;-84
2022/08/28 16:59:19;;;;;;;;;;;25.70;54.70;;;23.63;58.41;101218.91;12247668;19;19931;-86
2022/08/28 17:03:20;;;;;;;;;;;25.70;54.70;;;23.97;58.37;101271.44;12241330;19;20004;-88
2022/08/28 17:07:22;;;;;;;;;;;25.70;54.60;;;23.97;58.58;101272.28;12249185;19;19937;-87
2022/08/28 17:11:25;;;;;;;;;;;25.70;54.60;;;23.92;58.07;101271.06;12243279;19;19922;-87
2022/08/28 17:15:26;;;;;;;;;;;25.60;54.50;;;23.93;58.40;101283.44;12247537;19;19907;-88
2022/08/28 17:19:28;;;;;;;;;;;25.80;54.70;;;23.90;58.19;101284.59;12247221;19;19961;-88
2022/08/28 17:23:30;;;;;;;;;;;25.60;54.70;;;23.87;57.98;101292.06;12248362;19;19974;-87
2022/08/28 17:27:31;;;;;;;;;;;25.50;54.70;;;23.76;58.21;101290.47;12247487;19;20265;-88
2022/08/28 17:31:33;;;;;;;;;;;25.50;54.80;;;23.72;57.90;101300.63;12247129;19;20370;-90
2022/08/28 17:35:34;;;;;;;;;;;25.40;54.70;;;23.66;58.21;101301.25;12246992;19;20412;-86
2022/08/28 17:39:36;;;;;;;;;;;25.40;54.60;;;23.49;57.95;101291.44;12244930;19;19923;-86
2022/08/28 17:43:37;;;;;;;;;;;25.40;54.70;;;23.34;58.06;101289.34;12245890;19;19999;-86
2022/08/28 17:47:40;;;;;;;;;;;25.20;54.70;;;23.35;58.16;101311.50;12249215;19;20333;-85
2022/08/28 17:51:41;;;;;;;;;;;25.10;54.60;;;23.20;58.28;101292.56;12245746;19;19939;-89
2022/08/28 17:55:43;;;;;;;;;;;25.00;54.80;;;23.08;57.98;101293.75;12257459;19;19946;-87
2022/08/28 17:59:44;;;;;;;;;;;24.80;54.80;;;22.94;58.08;101290.59;12255735;19;20005;-87
2022/08/28 18:03:47;;;;;;;;;;;24.80;54.80;;;23.02;58.33;101321.03;12256760;19;19915;-87
2022/08/28 18:07:49;;;;;;;;;;;24.80;54.80;;;22.52;58.24;101259.22;12259388;19;19911;-87
2022/08/28 18:11:50;;;;;;;;;;;24.70;54.80;;;22.57;58.43;101279.22;12255869;19;19935;-86
2022/08/28 18:15:53;;;;;;;;;;;24.60;54.80;;;22.42;58.49;101263.78;12260364;19;19914;-85
2022/08/28 18:19:56;;;;;;;;;;;24.50;54.90;;;22.81;58.26;101335.41;12254506;19;19918;-87
2022/08/28 18:23:57;;;;;;;;;;;24.50;54.80;;;22.72;58.15;101336.31;12257719;19;19950;-87
2022/08/28 18:28:00;;;;;;;;;;;24.40;54.80;;;22.61;58.60;101331.19;12248358;19;20269;-87
2022/08/28 18:32:03;;;;;;;;;;;24.40;54.80;;;22.27;58.59;101289.19;12250044;19;19922;-86